Time;durP1;ratioP1;P1;durP2;ratioP2;P2;SDS_P1;SDS_P2;PMS_P1;PMS_P2;Temp;Humidity;BMP_temperature;BMP_pressure;BME280_temperature;BME280_humidity;BME280_pressure;Samples;Min_cycle;Max_cycle;Signal;HPM_P1;HPM_P2
2022/04/09 00:00:55;;;;;;;20.50;4.10;;;;;;;2.22;94.77;100288.78;5160674;29;20027;-85
2022/04/09 00:03:26;;;;;;;20.83;5.20;;;;;;;2.24;94.52;100303.41;5160544;29;20043;-85
2022/04/09 00:05:58;;;;;;;30.27;6.27;;;;;;;2.24;94.62;100300.84;5161390;29;20431;-83
2022/04/09 00:08:29;;;;;;;20.97;5.17;;;;;;;2.23;94.67;100303.38;5159637;29;20031;-85
2022/04/09 00:11:01;;;;;;;17.27;4.60;;;;;;;2.24;94.56;100305.09;5159671;29;20117;-85
2022/04/09 00:13:33;;;;;;;21.88;5.38;;;;;;;2.25;94.58;100311.97;5159001;29;20107;-85
2022/04/09 00:16:05;;;;;;;18.87;5.13;;;;;;;2.24;94.17;100310.25;5158713;29;20498;-84
2022/04/09 00:18:36;;;;;;;19.67;5.53;;;;;;;2.24;94.59;100321.41;5158771;29;20031;-86
2022/04/09 00:21:07;;;;;;;23.60;5.63;;;;;;;2.22;94.35;100328.22;5158339;29;20035;-81
2022/04/09 00:23:38;;;;;;;26.60;5.53;;;;;;;2.19;94.53;100331.63;5158471;29;20125;-82
2022/04/09 00:26:10;;;;;;;23.07;7.00;;;;;;;2.19;94.50;100341.91;5158306;29;20479;-85
2022/04/09 00:28:41;;;;;;;22.10;5.20;;;;;;;2.15;94.35;100347.00;5158457;29;20031;-85
2022/04/09 00:31:12;;;;;;;21.43;5.57;;;;;;;2.26;94.25;100344.59;5159487;29;20031;-83
2022/04/09 00:33:45;;;;;;;24.63;6.40;;;;;;;2.28;94.03;100345.47;5159167;29;20054;-85
2022/04/09 00:36:16;;;;;;;21.80;5.03;;;;;;;2.25;93.91;100353.13;5159190;29;20035;-79
2022/04/09 00:38:49;;;;;;;21.80;6.13;;;;;;;2.25;94.05;100350.56;5159112;29;20547;-86
2022/04/09 00:41:20;;;;;;;18.55;4.30;;;;;;;2.26;94.20;100354.88;5160425;29;20451;-86
2022/04/09 00:43:52;;;;;;;20.03;5.13;;;;;;;2.26;93.96;100360.00;5161465;29;20039;-85
2022/04/09 00:46:23;;;;;;;16.87;4.77;;;;;;;2.23;94.20;100363.38;5161014;29;20027;-85
2022/04/09 00:48:54;;;;;;;17.10;5.63;;;;;;;2.18;94.01;100373.59;5160961;29;20045;-85
2022/04/09 00:51:26;;;;;;;22.13;5.23;;;;;;;2.18;94.38;100365.03;5178379;29;20032;-81
2022/04/09 00:53:59;;;;;;;25.77;5.07;;;;;;;2.13;94.29;100380.41;5177332;29;20259;-81
2022/04/09 00:56:33;;;;;;;23.30;5.55;;;;;;;2.17;94.66;100384.75;5176751;29;20051;-86
2022/04/09 00:59:06;;;;;;;30.27;5.63;;;;;;;2.19;94.43;100384.78;5149769;29;20039;-75
2022/04/09 01:01:39;;;;;;;20.20;5.55;;;;;;;2.14;94.32;100388.97;5163160;29;20095;-87
2022/04/09 01:04:11;;;;;;;26.15;5.55;;;;;;;2.11;94.33;100394.06;5164323;29;20046;-89
2022/04/09 01:06:43;;;;;;;22.85;5.20;;;;;;;2.06;94.44;100401.72;5162046;29;20027;-87
2022/04/09 01:09:14;;;;;;;15.67;5.00;;;;;;;2.05;94.56;100407.69;5158388;28;20599;-87
2022/04/09 01:11:45;;;;;;;24.77;6.80;;;;;;;2.05;94.79;100404.28;5158636;29;20039;-81
2022/04/09 01:14:18;;;;;;;21.17;4.57;;;;;;;2.00;94.63;100412.75;5158094;29;20070;-86
2022/04/09 01:16:49;;;;;;;18.52;5.40;;;;;;;2.02;94.66;100417.06;5157727;29;20042;-85
2022/04/09 01:19:21;;;;;;;16.17;5.17;;;;;;;1.96;95.07;100417.81;5158073;29;20035;-87
2022/04/09 01:21:57;;;;;;;21.10;5.70;;;;;;;1.92;94.44;100422.06;5158813;29;20047;-79
2022/04/09 01:24:28;;;;;;;21.77;5.03;;;;;;;1.87;94.99;100433.97;5158034;29;20031;-87
2022/04/09 01:26:59;;;;;;;19.90;4.57;;;;;;;1.78;95.32;100437.22;5158014;29;20028;-84
2022/04/09 01:29:31;;;;;;;27.77;7.20;;;;;;;1.76;95.16;100435.50;5158869;29;20167;-87
2022/04/09 01:32:03;;;;;;;25.47;4.97;;;;;;;1.71;96.19;100449.97;5159128;29;20063;-85
2022/04/09 01:34:34;;;;;;;18.47;4.43;;;;;;;1.73;96.55;100453.44;5141725;29;20030;-81
2022/04/09 01:37:05;;;;;;;19.23;4.50;;;;;;;1.75;96.94;100459.44;5158469;29;20023;-85
2022/04/09 01:39:37;;;;;;;24.13;5.17;;;;;;;1.81;96.66;100449.28;5159233;29;20098;-85
2022/04/09 01:42:10;;;;;;;27.63;8.30;;;;;;;1.82;96.56;100466.44;5158465;29;20061;-85
2022/04/09 01:44:41;;;;;;;28.75;7.35;;;;;;;1.81;96.50;100460.41;5165737;29;20023;-85
2022/04/09 01:47:12;;;;;;;22.00;5.63;;;;;;;1.79;96.70;100464.69;5167146;29;20042;-88
2022/04/09 01:49:44;;;;;;;26.20;6.23;;;;;;;1.84;96.77;100466.47;5167645;29;20098;-78
2022/04/09 01:52:15;;;;;;;23.87;6.57;;;;;;;1.89;95.96;100485.41;5164547;29;20031;-84
2022/04/09 01:54:46;;;;;;;17.00;4.90;;;;;;;1.85;96.24;100481.91;5159659;29;20113;-86
2022/04/09 01:57:18;;;;;;;25.93;5.57;;;;;;;1.85;96.56;100493.88;5160219;29;20031;-80
2022/04/09 01:59:49;;;;;;;20.07;3.87;;;;;;;1.92;95.75;100495.75;5159698;29;20035;-87
2022/04/09 02:02:21;;;;;;;22.07;4.87;;;;;;;1.91;95.16;100494.00;5160327;29;20102;-87
2022/04/09 02:04:53;;;;;;;21.90;4.80;;;;;;;1.88;94.99;100494.81;5167752;29;20031;-74
2022/04/09 02:07:24;;;;;;;21.77;5.03;;;;;;;1.95;95.18;100495.81;5168376;29;20051;-90
2022/04/09 02:09:55;;;;;;;18.77;4.03;;;;;;;1.95;94.76;100500.94;5169445;29;20055;-80
2022/04/09 02:12:30;;;;;;;23.40;4.30;;;;;;;2.01;94.72;100508.75;5168944;29;20043;-86
2022/04/09 02:15:10;;;;;;;28.65;5.53;;;;;;;2.03;94.89;100509.66;5170721;29;20031;-87
2022/04/09 02:17:43;;;;;;;25.58;5.85;;;;;;;2.04;94.55;100523.38;5170907;29;20027;-89
2022/04/09 02:20:14;;;;;;;;;;;;;;;2.03;94.51;100521.63;5172151;28;20075;-85
2022/04/09 02:22:46;;;;;;;23.02;4.00;;;;;;;2.02;94.39;100531.06;5171531;29;19957;-87
2022/04/09 02:25:17;;;;;;;19.97;4.53;;;;;;;2.01;94.78;100529.31;5173307;29;20035;-86
2022/04/09 02:27:49;;;;;;;23.37;4.67;;;;;;;2.01;94.90;100529.31;5171782;29;20023;-84
2022/04/09 02:30:20;;;;;;;20.17;5.40;;;;;;;2.00;94.64;100530.16;5170625;29;20069;-86
2022/04/09 02:32:52;;;;;;;16.23;4.57;;;;;;;2.01;94.59;100544.72;5145834;29;20085;-89
2022/04/09 02:35:25;;;;;;;22.60;4.60;;;;;;;1.95;94.27;100544.66;5157141;29;20044;-83
2022/04/09 02:37:57;;;;;;;22.15;4.65;;;;;;;1.92;94.54;100539.44;5156995;29;20706;-88
2022/04/09 02:40:28;;;;;;;19.53;3.83;;;;;;;1.90;94.00;100559.09;5157093;29;20035;-85
2022/04/09 02:42:59;;;;;;;19.33;5.10;;;;;;;1.90;94.28;100556.53;5156170;29;20075;-88
2022/04/09 02:45:31;;;;;;;27.53;4.57;;;;;;;1.91;94.07;100564.25;5155501;29;20039;-83
2022/04/09 02:48:03;;;;;;;18.70;4.43;;;;;;;1.94;93.66;100568.59;5155782;29;20031;-75
2022/04/09 02:50:35;;;;;;;14.70;4.78;;;;;;;1.99;93.20;100569.56;5157284;29;20397;-85
2022/04/09 02:53:09;;;;;;;23.97;4.63;;;;;;;2.19;92.22;100562.22;5157191;29;20035;-85
2022/04/09 02:55:41;;;;;;;18.58;4.15;;;;;;;2.17;91.90;100572.47;5156746;29;20122;-88
2022/04/09 02:58:24;;;;;;;19.40;7.40;;;;;;;2.23;91.48;100578.56;5157836;29;20127;-90
2022/04/09 03:00:56;;;;;;;23.13;5.40;;;;;;;2.31;90.55;100587.28;5158550;29;20097;-86
2022/04/09 03:03:27;;;;;;;14.83;3.90;;;;;;;2.24;90.60;100588.88;5159212;29;20043;-89
2022/04/09 03:05:58;;;;;;;21.93;4.53;;;;;;;2.23;90.92;100604.28;5158353;29;20110;-85
2022/04/09 03:08:30;;;;;;;14.90;3.90;;;;;;;2.16;91.04;100596.44;5158150;29;20023;-85
2022/04/09 03:11:01;;;;;;;17.27;5.07;;;;;;;2.12;90.82;100604.94;5176687;29;20012;-87
2022/04/09 03:13:32;;;;;;;16.90;4.90;;;;;;;2.12;91.06;100610.06;5176919;29;20023;-79
2022/04/09 03:16:04;;;;;;;21.57;4.30;;;;;;;2.01;90.89;100598.72;5177754;29;20027;-87
2022/04/09 03:18:35;;;;;;;17.13;4.03;;;;;;;1.95;91.79;100611.47;5161525;29;20035;-78
2022/04/09 03:21:07;;;;;;;14.07;3.83;;;;;;;1.85;91.57;100605.25;5172142;29;20128;-79
2022/04/09 03:23:38;;;;;;;17.13;4.23;;;;;;;1.85;91.45;100612.13;5174016;29;20130;-74
2022/04/09 03:26:11;;;;;;;13.33;3.60;;;;;;;1.74;91.72;100620.50;5166811;29;20452;-87
2022/04/09 03:28:42;;;;;;;21.48;4.85;;;;;;;1.64;92.20;100622.00;5157282;29;20404;-88
2022/04/09 03:31:14;;;;;;;20.47;4.13;;;;;;;1.60;92.55;100627.03;5156102;29;20126;-88
2022/04/09 03:33:47;;;;;;;21.33;4.30;;;;;;;1.54;92.73;100634.63;5156429;29;20031;-87
2022/04/09 03:36:18;;;;;;;;;;;;;;;1.48;92.63;100639.63;5157096;29;20107;-83
2022/04/09 03:38:50;;;;;;;20.92;5.78;;;;;;;1.39;92.84;100635.16;5156908;29;20013;-88
2022/04/09 03:41:21;;;;;;;19.03;3.67;;;;;;;1.37;93.38;100629.09;5158182;29;20027;-86
2022/04/09 03:43:53;;;;;;;14.67;3.50;;;;;;;1.27;93.47;100639.19;5158361;29;20019;-83
2022/04/09 03:46:24;;;;;;;25.90;4.17;;;;;;;1.27;94.04;100640.88;5159229;29;20243;-86
2022/04/09 03:48:56;;;;;;;17.80;4.83;;;;;;;1.20;94.68;100628.72;5173601;29;20057;-78
2022/04/09 03:51:27;;;;;;;17.03;6.03;;;;;;;1.22;94.99;100643.34;5175097;29;20015;-80
2022/04/09 03:53:58;;;;;;;17.83;4.37;;;;;;;1.15;95.04;100643.16;5173930;28;20048;-81
2022/04/09 03:56:30;;;;;;;20.30;4.53;;;;;;;1.09;94.91;100646.44;5166027;29;20027;-85
2022/04/09 03:59:02;;;;;;;13.67;3.60;;;;;;;1.01;95.36;100651.38;5160447;29;20031;-90
2022/04/09 04:01:33;;;;;;;19.30;3.85;;;;;;;0.99;95.97;100653.06;5156810;29;20085;-87
2022/04/09 04:04:05;;;;;;;18.77;4.17;;;;;;;1.03;96.83;100664.25;5158014;29;20035;-88
2022/04/09 04:06:37;;;;;;;18.77;6.65;;;;;;;1.04;96.37;100666.88;5158380;29;20448;-73
2022/04/09 04:09:08;;;;;;;18.40;4.20;;;;;;;1.07;96.17;100661.81;5158235;29;20126;-78
2022/04/09 04:11:40;;;;;;;15.30;4.23;;;;;;;1.02;96.46;100673.69;5157917;29;20035;-88
2022/04/09 04:14:12;;;;;;;23.67;5.83;;;;;;;1.12;96.83;100676.47;5157459;29;20027;-88
2022/04/09 04:16:43;;;;;;;26.15;4.53;;;;;;;1.13;96.57;100673.94;5159906;29;20036;-90
2022/04/09 04:19:14;;;;;;;19.90;4.10;;;;;;;1.12;96.65;100681.59;5159913;29;20031;-87
2022/04/09 04:21:46;;;;;;;18.50;4.40;;;;;;;1.13;96.68;100694.47;5160852;29;20023;-89
2022/04/09 04:24:17;;;;;;;17.10;4.40;;;;;;;1.16;96.59;100697.13;5167693;29;20035;-88
2022/04/09 04:26:48;;;;;;;19.60;6.20;;;;;;;1.27;96.30;100692.22;5170737;29;20036;-85
2022/04/09 04:29:20;;;;;;;20.70;4.67;;;;;;;1.32;95.65;100706.06;5173662;29;20039;-88
2022/04/09 04:31:51;;;;;;;18.93;4.40;;;;;;;1.40;95.20;100699.41;5171531;29;20038;-89
2022/04/09 04:34:22;;;;;;;19.03;5.43;;;;;;;1.39;95.22;100700.22;5169693;29;20075;-81
2022/04/09 04:36:54;;;;;;;27.37;5.57;;;;;;;1.43;95.31;100708.88;5169186;29;20027;-88
2022/04/09 04:39:25;;;;;;;20.13;4.93;;;;;;;1.40;95.07;100707.13;5165136;29;20585;-82
2022/04/09 04:41:57;;;;;;;17.30;4.43;;;;;;;1.34;95.44;100704.41;5154256;28;20036;-85
2022/04/09 04:44:28;;;;;;;12.70;3.73;;;;;;;1.31;95.58;100704.31;5157911;29;20131;-85
2022/04/09 04:46:59;;;;;;;13.70;4.17;;;;;;;1.36;95.67;100712.13;5158484;29;20456;-88
2022/04/09 04:49:31;;;;;;;17.90;4.23;;;;;;;1.34;95.46;100722.38;5158156;29;20038;-87
2022/04/09 04:52:03;;;;;;;17.67;4.87;;;;;;;1.39;95.54;100728.47;5157662;29;20522;-81
2022/04/09 04:54:36;;;;;;;20.27;4.57;;;;;;;1.41;95.56;100736.22;5157262;29;20114;-81
2022/04/09 04:57:07;;;;;;;17.00;4.15;;;;;;;1.47;95.21;100733.81;5157720;29;20163;-86
2022/04/09 04:59:40;;;;;;;28.07;6.27;;;;;;;1.42;95.20;100740.53;5158190;29;20546;-76
2022/04/09 05:02:12;;;;;;;22.65;4.30;;;;;;;1.45;95.25;100741.47;5157491;29;20097;-77
2022/04/09 05:04:44;;;;;;;17.25;3.97;;;;;;;1.50;94.72;100741.59;5158323;29;20557;-74
2022/04/09 05:07:16;;;;;;;20.97;4.00;;;;;;;1.53;94.10;100751.03;5140235;29;20070;-85
2022/04/09 05:09:48;;;;;;;;;;;;;;;1.48;93.90;100755.22;5158884;29;20038;-91
2022/04/09 05:12:19;;;;;;;14.07;3.97;;;;;;;1.57;93.46;100753.72;5158758;29;19914;-85
2022/04/09 05:14:50;;;;;;;22.37;4.30;;;;;;;1.58;93.36;100760.63;5158091;29;20047;-75
2022/04/09 05:17:22;;;;;;;21.17;4.50;;;;;;;1.64;92.90;100770.16;5157818;29;20023;-78
2022/04/09 05:19:53;;;;;;;19.17;3.90;;;;;;;1.67;92.95;100766.78;5157831;29;20082;-76
2022/04/09 05:22:27;;;;;;;15.63;4.83;;;;;;;1.70;92.80;100780.56;5160964;29;20114;-76
2022/04/09 05:24:59;;;;;;;23.88;4.22;;;;;;;1.75;92.74;100788.41;5158199;29;20085;-75
2022/04/09 05:27:30;;;;;;;14.03;5.03;;;;;;;1.76;92.30;100782.44;5158693;29;20523;-89
2022/04/09 05:30:03;;;;;;;20.37;4.57;;;;;;;1.77;92.84;100789.28;5159974;29;20896;-75
2022/04/09 05:32:36;;;;;;;15.50;3.53;;;;;;;1.75;92.73;100794.41;5162188;29;20042;-85
2022/04/09 05:35:08;;;;;;;17.40;4.55;;;;;;;1.79;92.76;100797.94;5160117;29;20063;-77
2022/04/09 05:37:44;;;;;;;20.30;4.70;;;;;;;1.86;92.94;100801.50;5161053;29;20033;-74
2022/04/09 05:40:16;;;;;;;18.85;4.50;;;;;;;1.86;92.76;100807.50;5158283;29;20162;-82
2022/04/09 05:42:47;;;;;;;18.38;5.97;;;;;;;1.86;92.93;100812.66;5158195;29;20039;-83
2022/04/09 05:45:19;;;;;;;18.80;5.20;;;;;;;2.05;92.13;100819.09;5157377;29;20031;-75
2022/04/09 05:47:51;;;;;;;16.67;5.03;;;;;;;2.16;91.65;100821.91;5157869;29;20098;-76
2022/04/09 05:50:22;;;;;;;19.00;3.70;;;;;;;2.26;91.21;100828.97;5157710;29;20027;-75
2022/04/09 05:52:54;;;;;;;14.57;4.73;;;;;;;2.44;90.44;100832.78;5139150;29;20050;-77
2022/04/09 05:55:25;;;;;;;16.10;4.67;;;;;;;2.55;89.87;100836.44;5156503;28;20415;-78
2022/04/09 05:57:57;;;;;;;19.93;5.50;;;;;;;2.67;89.28;100836.72;5159149;29;20122;-86
2022/04/09 06:00:28;;;;;;;19.53;4.27;;;;;;;2.67;89.33;100844.44;5158463;29;20520;-78
2022/04/09 06:03:01;;;;;;;22.30;5.93;;;;;;;2.71;89.22;100846.22;5156426;29;20090;-77
2022/04/09 06:05:34;;;;;;;18.38;4.28;;;;;;;2.78;89.10;100849.78;5155926;29;20054;-77
2022/04/09 06:08:05;;;;;;;;;;;;;;;2.81;89.02;100851.56;5156811;29;20340;-76
2022/04/09 06:10:37;;;;;;;17.48;4.70;;;;;;;2.92;88.69;100857.78;5156585;29;19923;-79
2022/04/09 06:13:10;;;;;;;21.47;4.27;;;;;;;2.97;88.23;100865.59;5157125;29;20119;-77
2022/04/09 06:15:41;;;;;;;18.60;3.85;;;;;;;3.03;87.73;100865.72;5157122;29;20031;-76
2022/04/09 06:18:14;;;;;;;18.63;4.93;;;;;;;3.04;88.23;100867.44;5157422;29;20082;-78
2022/04/09 06:20:46;;;;;;;18.85;4.70;;;;;;;3.16;87.23;100875.41;5139689;29;20039;-77
2022/04/09 06:23:20;;;;;;;21.83;4.97;;;;;;;3.28;86.80;100882.50;5157156;29;20061;-84
2022/04/09 06:25:52;;;;;;;29.52;8.30;;;;;;;3.36;86.49;100890.38;5157268;29;20114;-80
2022/04/09 06:28:24;;;;;;;27.63;5.97;;;;;;;3.42;86.24;100888.78;5155009;28;20107;-83
2022/04/09 06:30:55;;;;;;;17.27;4.40;;;;;;;3.52;85.63;100900.09;5156079;29;20031;-84
2022/04/09 06:33:26;;;;;;;37.97;6.83;;;;;;;3.62;85.42;100899.44;5158192;29;20050;-79
2022/04/09 06:35:59;;;;;;;13.60;3.57;;;;;;;3.74;84.95;100901.38;5140505;29;20035;-78
2022/04/09 06:38:46;;;;;;;40.65;5.68;;;;;;;3.94;84.29;100912.00;5160044;29;20030;-78
2022/04/09 06:41:18;;;;;;;13.55;3.88;;;;;;;3.95;84.21;100910.31;5162753;29;20034;-77
2022/04/09 06:43:49;;;;;;;16.00;4.70;;;;;;;4.03;83.87;100910.44;5161280;29;20023;-81
2022/04/09 06:46:21;;;;;;;22.90;5.03;;;;;;;4.21;83.59;100918.44;5164581;29;20117;-82
2022/04/09 06:48:52;;;;;;;17.70;4.60;;;;;;;4.46;82.42;100911.06;5166859;29;20031;-75
2022/04/09 06:51:24;;;;;;;16.50;4.50;;;;;;;4.68;82.10;100910.50;5160167;29;20019;-79
2022/04/09 06:53:56;;;;;;;33.90;7.00;;;;;;;4.85;81.27;100915.06;5161983;29;20043;-77
2022/04/09 06:56:27;;;;;;;30.13;4.65;;;;;;;4.89;80.35;100911.63;5157474;29;20035;-76
2022/04/09 06:59:00;;;;;;;22.80;5.87;;;;;;;4.95;80.71;100921.19;5158634;29;20106;-79
2022/04/09 07:01:32;;;;;;;11.88;4.10;;;;;;;4.91;81.07;100910.81;5156901;29;20037;-77
2022/04/09 07:04:03;;;;;;;12.83;4.00;;;;;;;4.79;80.78;100925.28;5143599;29;20412;-84
2022/04/09 07:06:35;;;;;;;16.80;3.53;;;;;;;4.77;81.03;100927.84;5136977;29;20031;-84
2022/04/09 07:09:06;;;;;;;16.10;4.33;;;;;;;4.73;81.00;100941.56;5137714;29;20112;-78
2022/04/09 07:11:37;;;;;;;15.47;4.77;;;;;;;4.67;80.86;100941.47;5140973;29;20548;-78
2022/04/09 07:14:09;;;;;;;16.20;4.27;;;;;;;4.62;80.86;100940.53;5140358;29;20038;-78
2022/04/09 07:16:40;;;;;;;15.67;4.10;;;;;;;4.64;81.64;100949.19;5137034;29;20028;-83
2022/04/09 07:19:11;;;;;;;18.00;4.00;;;;;;;4.62;82.08;100964.69;5135524;29;20032;-79
2022/04/09 07:21:43;;;;;;;17.50;3.93;;;;;;;4.56;81.17;100962.84;5136413;29;20107;-80
2022/04/09 07:24:14;;;;;;;16.83;4.10;;;;;;;4.53;81.12;100960.22;5135765;29;20039;-78
2022/04/09 07:26:46;;;;;;;16.97;4.00;;;;;;;4.53;80.93;100974.84;5137312;29;20464;-79
2022/04/09 07:29:17;;;;;;;12.93;2.97;;;;;;;4.60;81.08;100968.91;5137409;29;20395;-83
2022/04/09 07:31:48;;;;;;;20.07;4.03;;;;;;;4.68;80.68;100967.31;5140460;29;20509;-79
2022/04/09 07:34:20;;;;;;;20.57;4.20;;;;;;;4.77;80.19;100971.75;5135225;29;20058;-78
2022/04/09 07:36:51;;;;;;;13.47;3.90;;;;;;;4.81;79.83;100970.09;5135111;29;20514;-83
2022/04/09 07:39:23;;;;;;;14.27;4.67;;;;;;;5.01;79.73;100985.88;5135477;29;20036;-81
2022/04/09 07:41:54;;;;;;;14.33;4.33;;;;;;;5.15;79.47;100979.13;5135259;29;20464;-80
2022/04/09 07:44:25;;;;;;;14.27;4.33;;;;;;;5.23;78.52;100984.41;5137181;29;20030;-83
2022/04/09 07:46:57;;;;;;;16.90;5.10;;;;;;;5.35;78.64;100981.97;5135766;29;20479;-79
2022/04/09 07:49:28;;;;;;;16.23;4.60;;;;;;;5.50;78.62;100980.41;5118343;29;20116;-78
2022/04/09 07:52:00;;;;;;;24.13;7.60;;;;;;;5.59;77.40;100983.13;5135597;29;20483;-79
2022/04/09 07:54:32;;;;;;;25.93;7.53;;;;;;;5.72;76.96;100982.38;5135847;29;20056;-83
2022/04/09 07:57:04;;;;;;;14.57;4.00;;;;;;;5.90;77.05;100986.00;5136211;29;20031;-81
2022/04/09 07:59:35;;;;;;;21.30;4.97;;;;;;;6.03;75.70;100980.97;5136481;29;20042;-86
2022/04/09 08:02:06;;;;;;;15.40;6.43;;;;;;;6.21;76.51;100994.94;5136768;29;20808;-84
2022/04/09 08:04:38;;;;;;;15.57;4.60;;;;;;;6.32;74.24;100992.44;5135407;29;20032;-80
2022/04/09 08:07:09;;;;;;;12.63;4.53;;;;;;;6.39;73.78;100999.41;5134234;29;20027;-78
2022/04/09 08:09:45;;;;;;;17.73;4.47;;;;;;;6.62;73.82;100996.09;5139416;29;20036;-82
2022/04/09 08:12:16;;;;;;;12.68;3.17;;;;;;;6.81;72.19;100992.81;5140405;29;20497;-82
2022/04/09 08:14:48;;;;;;;18.07;5.13;;;;;;;6.81;71.25;100995.41;5144448;29;20103;-83
2022/04/09 08:17:20;;;;;;;13.93;4.10;;;;;;;6.95;68.88;100995.44;5147381;29;20150;-79
2022/04/09 08:19:52;;;;;;;16.80;4.57;;;;;;;7.36;68.00;100992.19;5145773;29;20015;-78
2022/04/09 08:22:24;;;;;;;13.00;4.17;;;;;;;7.48;66.20;100997.41;5149314;29;20452;-81
2022/04/09 08:24:56;;;;;;;12.65;3.75;;;;;;;7.38;65.71;100997.41;5150637;29;20094;-79
2022/04/09 08:27:28;;;;;;;14.48;4.05;;;;;;;7.57;65.12;100996.59;5150093;29;20034;-78
2022/04/09 08:30:00;;;;;;;12.88;3.85;;;;;;;7.56;63.66;101000.03;5145612;29;20114;-79
2022/04/09 08:32:32;;;;;;;16.03;3.77;;;;;;;7.72;64.35;101002.69;5137903;29;20156;-79
2022/04/09 08:35:04;;;;;;;11.95;3.60;;;;;;;7.84;62.13;101013.06;5139129;29;20098;-79
2022/04/09 08:37:35;;;;;;;16.07;4.63;;;;;;;7.63;60.60;101017.38;5137687;29;20458;-78
2022/04/09 08:40:12;;;;;;;14.83;3.17;;;;;;;7.59;59.48;101012.16;5138034;29;20040;-79
2022/04/09 08:42:43;;;;;;;12.60;3.10;;;;;;;7.85;58.57;101028.66;5137275;29;20042;-78
2022/04/09 08:45:16;;;;;;;8.33;2.80;;;;;;;7.96;56.97;101035.63;5137667;29;20028;-77
2022/04/09 08:47:48;;;;;;;12.63;2.83;;;;;;;8.12;55.34;101036.50;5137633;29;20488;-77
2022/04/09 08:50:20;;;;;;;11.05;3.40;;;;;;;8.12;57.77;101026.97;5137886;29;20050;-78
2022/04/09 08:52:52;;;;;;;6.77;2.43;;;;;;;8.57;56.40;101037.41;5137794;29;20027;-79
2022/04/09 08:55:24;;;;;;;16.77;3.97;;;;;;;8.47;57.85;101033.97;5137390;29;20047;-79
2022/04/09 08:57:55;;;;;;;8.23;2.90;;;;;;;8.63;56.69;101033.94;5137528;29;20044;-78
2022/04/09 09:00:27;;;;;;;9.43;3.33;;;;;;;8.54;54.51;101035.69;5137377;29;20036;-78
2022/04/09 09:03:01;;;;;;;9.97;2.67;;;;;;;8.38;54.02;101054.72;5121895;29;20095;-78
2022/04/09 09:05:37;;;;;;;8.43;3.05;;;;;;;7.79;54.65;101057.22;5139366;29;20173;-79
2022/04/09 09:08:10;;;;;;;7.75;2.70;;;;;;;7.57;54.43;101051.06;5138973;29;20055;-79
2022/04/09 09:10:42;;;;;;;9.98;2.97;;;;;;;7.58;54.39;101060.59;5139514;29;20078;-79
2022/04/09 09:13:50;;;;;;;6.87;2.63;;;;;;;8.09;53.87;101058.13;5138765;29;20062;-78
2022/04/09 09:16:32;;;;;;;7.03;2.42;;;;;;;8.04;52.53;101059.84;5138932;29;20035;-79
2022/04/09 09:19:05;;;;;;;7.80;2.38;;;;;;;9.09;50.50;101060.72;5138718;29;20034;-79
2022/04/09 09:21:37;;;;;;;6.70;2.00;;;;;;;8.84;50.48;101062.53;5138867;29;20084;-79
2022/04/09 09:24:13;;;;;;;6.20;2.30;;;;;;;9.07;48.49;101078.09;5138556;29;20042;-79
2022/04/09 09:26:44;;;;;;;6.85;2.30;;;;;;;9.19;47.78;101097.97;5138670;29;20078;-78
2022/04/09 09:29:29;;;;;;;7.63;1.87;;;;;;;8.65;51.93;101095.47;5138325;29;20044;-79
2022/04/09 09:32:05;;;;;;;4.10;1.48;;;;;;;8.30;54.40;101108.38;5138860;29;20031;-78
2022/04/09 09:34:37;;;;;;;4.88;1.42;;;;;;;8.54;54.13;101092.00;5138292;29;20023;-80
2022/04/09 09:37:20;;;;;;;5.72;1.77;;;;;;;8.40;54.38;101090.22;5138849;29;20020;-77
2022/04/09 09:39:52;;;;;;;4.18;1.67;;;;;;;8.07;55.09;101091.03;5142561;29;20186;-78
2022/04/09 09:42:28;;;;;;;8.23;2.00;;;;;;;7.88;55.68;101084.91;5146485;29;20024;-79
2022/04/09 09:44:59;;;;;;;6.30;2.50;;;;;;;7.88;56.19;101090.09;5125652;29;20039;-77
2022/04/09 09:47:30;;;;;;;7.70;2.63;;;;;;;8.37;56.72;101084.13;5146421;29;20070;-79
2022/04/09 09:50:02;;;;;;;9.50;1.97;;;;;;;9.06;53.23;101080.69;5146672;29;20023;-78
2022/04/09 09:52:34;;;;;;;6.87;2.20;;;;;;;10.49;49.34;101084.41;5145112;29;20041;-77
2022/04/09 09:55:13;;;;;;;10.45;2.15;;;;;;;11.62;44.89;101077.19;5147354;29;20043;-78
2022/04/09 09:57:48;;;;;;;5.93;1.95;;;;;;;10.19;46.16;101089.78;5146966;29;20032;-78
2022/04/09 10:00:35;;;;;;;6.53;1.70;;;;;;;9.99;46.08;101087.28;5150519;29;20027;-79
2022/04/09 10:03:09;;;;;;;8.18;1.80;;;;;;;9.95;43.56;101090.78;5137477;29;20034;-77
2022/04/09 10:05:41;;;;;;;8.70;2.00;;;;;;;10.04;44.40;101085.50;5137253;29;20378;-80
2022/04/09 10:08:12;;;;;;;5.77;2.07;;;;;;;11.14;41.06;101079.47;5119291;29;20036;-78
2022/04/09 10:10:50;;;;;;;7.07;1.67;;;;;;;11.36;40.62;101092.28;5136169;29;20099;-79
2022/04/09 10:13:24;;;;;;;4.82;1.70;;;;;;;10.85;40.23;101083.22;5136101;29;20038;-80
2022/04/09 10:15:55;;;;;;;4.13;1.90;;;;;;;9.88;40.22;101086.47;5135341;29;20039;-79
2022/04/09 10:18:27;;;;;;;5.73;1.70;;;;;;;9.22;41.40;101089.31;5136045;29;20031;-78
2022/04/09 10:21:01;;;;;;;4.57;1.50;;;;;;;9.51;42.18;101104.00;5135951;29;20129;-79
2022/04/09 10:23:34;;;;;;;5.85;2.15;;;;;;;10.52;39.67;101100.00;5135913;29;20043;-79
2022/04/09 10:26:06;;;;;;;5.82;1.85;;;;;;;10.84;39.10;101091.91;5137267;29;20027;-81
2022/04/09 10:28:39;;;;;;;5.82;1.60;;;;;;;11.04;40.31;101106.53;5139024;29;20035;-78
2022/04/09 10:31:29;;;;;;;6.72;3.13;;;;;;;10.17;41.02;101098.47;5137608;29;20332;-78
2022/04/09 10:34:02;;;;;;;6.05;2.05;;;;;;;9.12;40.23;101115.34;5139386;29;20035;-81
2022/04/09 10:36:40;;;;;;;6.05;2.25;;;;;;;9.21;40.95;101103.19;5136892;29;20027;-78
2022/04/09 10:39:39;;;;;;;4.45;1.80;;;;;;;11.00;38.59;101097.88;5137930;29;20095;-80
2022/04/09 10:42:50;;;;;;;7.70;2.13;;;;;;;12.02;36.14;101097.56;5136059;29;20040;-78
2022/04/09 10:45:22;;;;;;;6.30;1.75;;;;;;;10.60;38.09;101100.81;5134960;29;20043;-79
2022/04/09 10:48:14;;;;;;;7.10;2.00;;;;;;;10.63;39.45;101110.38;5134971;29;20038;-79
2022/04/09 10:50:52;;;;;;;5.80;2.25;;;;;;;10.12;39.04;101106.31;5135444;29;20039;-78
2022/04/09 10:53:29;;;;;;;8.23;2.20;;;;;;;9.75;39.27;101118.66;5135383;29;20039;-79
2022/04/09 10:56:31;;;;;;;5.35;1.85;;;;;;;10.91;35.53;101105.78;5135432;29;20131;-77
2022/04/09 10:59:12;;;;;;;5.75;2.00;;;;;;;12.07;35.02;101117.56;5135542;29;20365;-80
2022/04/09 11:01:47;;;;;;;4.93;1.95;;;;;;;11.36;35.33;101113.16;5135178;29;20191;-80
2022/04/09 11:04:31;;;;;;;4.78;1.67;;;;;;;11.94;36.20;101109.88;5135902;29;20040;-80
2022/04/09 11:07:18;;;;;;;4.38;1.85;;;;;;;11.81;34.49;101116.97;5135791;29;20066;-80
2022/04/09 11:09:53;;;;;;;6.05;1.83;;;;;;;11.82;34.21;101120.47;5135710;29;20866;-79
2022/04/09 11:12:40;;;;;;;8.38;1.65;;;;;;;12.49;32.87;101104.75;5136159;29;20164;-79
2022/04/09 11:15:15;;;;;;;2.45;1.17;;;;;;;12.85;31.89;101118.97;5135694;29;20107;-80
2022/04/09 11:17:46;;;;;;;2.97;1.50;;;;;;;11.46;32.59;101112.16;5135022;29;20154;-79
2022/04/09 11:20:23;;;;;;;3.80;1.43;;;;;;;13.10;30.88;101116.78;5136054;29;20899;-82
2022/04/09 11:22:58;;;;;;;5.18;1.42;;;;;;;13.75;30.44;101104.22;5135505;29;20372;-79
2022/04/09 11:25:30;;;;;;;4.88;1.67;;;;;;;14.11;30.52;101114.84;5136042;29;20036;-80
2022/04/09 11:28:13;;;;;;;5.32;1.63;;;;;;;14.26;29.43;101124.97;5134265;29;20488;-80
2022/04/09 11:30:54;;;;;;;;;;;;;;;14.84;29.93;101108.75;5135230;29;20040;-77
2022/04/09 11:33:27;;;;;;;6.05;1.52;;;;;;;15.14;28.99;101122.88;5117963;29;20005;-78
2022/04/09 11:36:02;;;;;;;5.82;1.50;;;;;;;13.47;29.57;101116.13;5134906;29;20024;-80
2022/04/09 11:38:34;;;;;;;4.78;1.20;;;;;;;14.30;29.88;101124.00;5118091;29;20123;-79
2022/04/09 11:41:18;;;;;;;3.83;1.40;;;;;;;16.09;28.90;101127.22;5135915;29;20692;-80
2022/04/09 11:43:50;;;;;;;5.78;1.75;;;;;;;14.81;28.26;101124.59;5117351;29;20047;-83
2022/04/09 11:46:22;;;;;;;3.88;1.40;;;;;;;14.80;28.90;101123.72;5118208;29;20032;-79
2022/04/09 11:49:00;;;;;;;8.23;1.60;;;;;;;13.60;28.56;101137.69;5133932;29;20038;-78
2022/04/09 11:51:31;;;;;;;3.20;1.52;;;;;;;13.40;30.02;101145.09;5133855;29;20036;-79
2022/04/09 11:54:18;;;;;;;5.60;1.50;;;;;;;14.54;28.24;101150.56;5138969;29;20480;-78